Time;durP1;ratioP1;P1;durP2;ratioP2;P2;SDS_P1;SDS_P2;PMS_P1;PMS_P2;Temp;Humidity;BMP_temperature;BMP_pressure;BME280_temperature;BME280_humidity;BME280_pressure;Samples;Min_cycle;Max_cycle;Signal;HPM_P1;HPM_P2
2022/02/08 00:01:08;;;;;;;8.83;1.40;;;4.30;1.00;;;;;;5034036;28;20893;-73
2022/02/08 00:03:33;;;;;;;1.00;1.00;;;4.30;1.00;;;;;;5047676;28;20483;-73
2022/02/08 00:06:26;;;;;;;3.33;1.20;;;4.30;1.00;;;;;;5053297;28;20497;-73
2022/02/08 00:08:51;;;;;;;1.43;1.00;;;4.30;1.00;;;;;;5043157;28;20168;-73
2022/02/08 00:11:17;;;;;;;2.20;0.97;;;4.40;1.00;;;;;;5043918;28;20718;-73
2022/02/08 00:13:42;;;;;;;8.93;1.67;;;4.40;1.00;;;;;;5050067;28;20176;-73
2022/02/08 00:16:08;;;;;;;2.93;0.90;;;4.40;1.00;;;;;;5042349;28;20223;-73
2022/02/08 00:18:35;;;;;;;1.83;1.20;;;4.40;1.00;;;;;;5045305;28;20643;-75
2022/02/08 00:21:01;;;;;;;3.10;1.23;;;4.40;1.00;;;;;;5033908;28;20592;-75
2022/02/08 00:23:29;;;;;;;3.67;1.20;;;4.40;1.00;;;;;;5042801;28;20417;-75
2022/02/08 00:25:55;;;;;;;4.28;1.15;;;4.40;1.00;;;;;;5044414;28;20221;-74
2022/02/08 00:28:23;;;;;;;9.30;1.00;;;4.40;1.00;;;;;;5053887;28;20662;-74
2022/02/08 00:30:53;;;;;;;2.10;0.97;;;4.50;1.00;;;;;;5040922;28;20187;-75
2022/02/08 00:33:19;;;;;;;2.07;1.17;;;4.50;1.00;;;;;;5046113;28;20458;-72
2022/02/08 00:35:45;;;;;;;1.90;0.93;;;4.50;1.00;;;;;;5046947;28;20448;-73
2022/02/08 00:38:12;;;;;;;2.70;1.43;;;4.60;1.00;;;;;;5040085;28;20179;-73
2022/02/08 00:40:38;;;;;;;4.20;0.90;;;4.60;1.00;;;;;;5052657;28;20167;-73
2022/02/08 00:43:06;;;;;;;2.83;1.07;;;;;;;;;;5039101;28;20414;-73
2022/02/08 00:45:50;;;;;;;2.70;1.30;;;4.60;1.00;;;;;;5049989;28;20423;-73
2022/02/08 00:48:28;;;;;;;3.10;0.90;;;4.60;1.00;;;;;;5042500;28;20460;-73
2022/02/08 00:50:54;;;;;;;4.40;1.20;;;;;;;;;;5042367;28;20450;-73
2022/02/08 00:53:20;;;;;;;1.55;1.30;;;4.70;1.00;;;;;;5043331;28;20458;-73
2022/02/08 00:55:46;;;;;;;0.97;0.87;;;4.70;1.00;;;;;;5046687;28;20222;-73
2022/02/08 00:58:12;;;;;;;11.03;1.27;;;4.70;1.00;;;;;;5042811;28;20530;-73
2022/02/08 01:00:39;;;;;;;4.13;1.30;;;4.70;1.00;;;;;;5042240;28;20419;-73
2022/02/08 01:03:11;;;;;;;4.33;1.20;;;4.80;1.00;;;;;;5039575;28;20422;-73
2022/02/08 01:06:11;;;;;;;3.37;1.37;;;4.70;1.00;;;;;;5045708;28;20446;-75
2022/02/08 01:08:42;;;;;;;3.67;1.30;;;4.70;1.00;;;;;;5040029;28;20399;-75
2022/02/08 01:11:11;;;;;;;5.17;1.10;;;4.80;1.00;;;;;;5053441;28;20394;-75
2022/02/08 01:13:47;;;;;;;2.80;1.17;;;4.80;1.00;;;;;;5043488;28;20504;-74
2022/02/08 01:16:13;;;;;;;2.87;1.63;;;4.80;1.00;;;;;;5042207;28;20947;-75
2022/02/08 01:18:42;;;;;;;3.27;1.83;;;4.80;1.00;;;;;;5052539;28;20406;-74
2022/02/08 01:21:08;;;;;;;2.17;1.10;;;4.80;1.00;;;;;;5034357;28;20168;-74
2022/02/08 01:23:34;;;;;;;3.73;1.30;;;4.90;1.00;;;;;;5042456;28;20529;-75
2022/02/08 01:26:12;;;;;;;2.60;1.40;;;4.90;1.00;;;;;;5040911;28;20176;-75
2022/02/08 01:28:50;;;;;;;2.73;1.27;;;4.90;1.00;;;;;;5033367;28;20383;-75
2022/02/08 01:31:19;;;;;;;4.90;1.57;;;4.90;1.00;;;;;;5050220;28;20765;-75
2022/02/08 01:37:00;;;;;;;2.80;1.30;;;5.00;1.00;;;;;;5037712;28;20948;-74
2022/02/08 01:39:34;;;;;;;4.53;1.50;;;5.00;1.00;;;;;;5050194;28;20442;-74
2022/02/08 01:42:24;;;;;;;3.37;1.07;;;5.00;1.00;;;;;;5047874;28;20758;-75
2022/02/08 01:45:12;;;;;;;4.40;1.33;;;5.00;1.00;;;;;;5044264;28;20502;-75
2022/02/08 01:50:41;;;;;;;7.50;1.67;;;5.00;1.00;;;;;;5051761;28;20457;-73
2022/02/08 01:53:07;;;;;;;6.90;1.77;;;5.00;1.00;;;;;;5045009;28;20449;-73
2022/02/08 01:55:33;;;;;;;2.10;1.03;;;5.10;1.00;;;;;;5041889;28;20426;-73
2022/02/08 01:58:02;;;;;;;4.63;1.80;;;5.10;1.00;;;;;;5046440;28;20494;-73
2022/02/08 02:00:29;;;;;;;2.90;1.60;;;5.10;1.00;;;;;;5038108;28;20407;-73
2022/02/08 02:02:55;;;;;;;1.93;1.20;;;5.20;1.00;;;;;;5038082;28;20422;-73
2022/02/08 02:05:21;;;;;;;5.17;1.23;;;5.20;1.00;;;;;;5051521;28;20899;-73
2022/02/08 02:07:49;;;;;;;6.83;1.20;;;;;;;;;;5045709;28;20449;-73
2022/02/08 02:10:19;;;;;;;3.87;1.40;;;5.20;1.00;;;;;;5056126;28;20418;-73
2022/02/08 02:12:49;;;;;;;4.37;1.40;;;5.20;1.00;;;;;;5060908;28;20457;-73
2022/02/08 02:15:15;;;;;;;5.10;2.33;;;5.30;1.00;;;;;;5038243;28;20407;-73
2022/02/08 02:17:41;;;;;;;3.37;1.30;;;;;;;;;;5050122;28;20293;-73
2022/02/08 02:20:07;;;;;;;3.10;1.50;;;5.20;1.00;;;;;;5038618;28;20172;-73
2022/02/08 02:22:35;;;;;;;5.17;1.67;;;5.20;1.00;;;;;;5044269;28;20418;-73
2022/02/08 02:25:01;;;;;;;5.07;1.73;;;5.20;1.00;;;;;;5050035;28;20434;-73
2022/02/08 02:27:27;;;;;;;8.10;1.40;;;5.10;1.00;;;;;;5039697;28;20422;-73
2022/02/08 02:29:53;;;;;;;12.27;1.97;;;5.10;1.00;;;;;;5049094;28;20411;-72
2022/02/08 02:32:19;;;;;;;3.20;1.63;;;5.10;1.00;;;;;;5043931;28;20229;-72
2022/02/08 02:34:49;;;;;;;4.10;1.53;;;5.00;1.00;;;;;;5041181;28;20425;-75
2022/02/08 02:37:17;;;;;;;4.10;1.30;;;5.00;1.00;;;;;;5045560;28;20263;-75
2022/02/08 02:39:42;;;;;;;1.67;1.27;;;5.00;1.00;;;;;;5050987;28;20929;-74
2022/02/08 02:42:18;;;;;;;8.37;2.00;;;5.00;1.00;;;;;;5047801;28;20415;-74
2022/02/08 02:44:53;;;;;;;1.50;1.10;;;5.00;1.00;;;;;;5035660;28;20505;-74
2022/02/08 02:47:22;;;;;;;1.70;1.40;;;5.00;1.00;;;;;;5041821;28;20433;-75
2022/02/08 02:49:48;;;;;;;3.33;1.40;;;5.10;1.00;;;;;;5049070;28;20506;-72
2022/02/08 02:52:13;;;;;;;6.80;1.10;;;5.10;1.00;;;;;;5041123;28;21008;-73
2022/02/08 02:54:42;;;;;;;2.53;1.40;;;5.10;1.00;;;;;;5035408;28;20635;-73
2022/02/08 02:57:14;;;;;;;2.60;1.33;;;5.10;1.00;;;;;;5047114;28;20168;-73
2022/02/08 02:59:41;;;;;;;2.45;1.05;;;5.10;1.00;;;;;;5044948;28;20754;-73
2022/02/08 03:18:33;;;;;;;2.73;1.03;;;4.90;1.00;;;;;;5040937;28;20481;-73
2022/02/08 03:21:02;;;;;;;3.90;1.47;;;4.90;1.00;;;;;;5045464;28;20900;-73
2022/02/08 03:23:28;;;;;;;1.50;1.10;;;5.00;1.00;;;;;;5039891;28;20406;-73
2022/02/08 03:25:54;;;;;;;4.60;1.10;;;4.90;1.00;;;;;;5042801;28;20419;-72
2022/02/08 03:28:20;;;;;;;4.17;1.23;;;4.90;1.00;;;;;;5035716;28;20438;-73
2022/02/08 03:30:48;;;;;;;6.10;1.47;;;4.90;1.00;;;;;;5035757;28;20176;-73
2022/02/08 03:33:13;;;;;;;2.30;1.20;;;5.00;1.00;;;;;;5051887;28;20566;-73
2022/02/08 03:35:40;;;;;;;1.03;0.90;;;;;;;;;;5053042;28;20430;-73
2022/02/08 03:38:08;;;;;;;5.23;0.97;;;5.00;1.00;;;;;;5046893;28;20185;-73
2022/02/08 03:43:12;;;;;;;6.80;1.17;;;;;;;;;;5040993;28;20974;-73
2022/02/08 03:45:39;;;;;;;1.00;1.00;;;5.10;1.00;;;;;;5039002;28;20176;-73
2022/02/08 03:48:06;;;;;;;0.90;0.80;;;5.10;1.00;;;;;;5042428;28;20427;-73
2022/02/08 03:50:32;;;;;;;1.53;1.40;;;5.10;1.00;;;;;;5047066;28;20430;-73
2022/02/08 03:52:58;;;;;;;3.83;1.53;;;5.20;1.00;;;;;;5046092;28;20454;-73
2022/02/08 03:55:24;;;;;;;1.10;0.90;;;5.20;1.00;;;;;;5036287;28;20438;-73
2022/02/08 03:57:49;;;;;;;5.50;1.33;;;5.20;1.00;;;;;;5039160;28;20188;-73
2022/02/08 04:00:17;;;;;;;4.07;1.87;;;5.20;1.00;;;;;;5045608;28;20418;-73
2022/02/08 04:02:55;;;;;;;8.63;1.00;;;5.30;1.00;;;;;;5049674;28;20200;-73
2022/02/08 04:08:00;;;;;;;0.93;0.90;;;5.20;1.00;;;;;;5043681;28;20418;-75
2022/02/08 04:10:28;;;;;;;4.30;1.40;;;5.30;1.00;;;;;;5036803;28;20964;-75
2022/02/08 04:18:31;;;;;;;4.80;1.23;;;7.90;1.00;;;;;;5046600;28;20498;-75
2022/02/08 04:43:08;;;;;;;1.97;1.00;;;5.50;1.00;;;;;;5047006;28;20768;-73
2022/02/08 04:48:07;;;;;;;7.67;1.50;;;;;;;;;;5041333;28;20430;-73
2022/02/08 04:50:34;;;;;;;16.33;1.03;;;5.50;1.00;;;;;;5047306;28;20582;-73
2022/02/08 04:53:08;;;;;;;3.73;0.70;;;5.50;1.00;;;;;;5041171;28;20458;-73
2022/02/08 04:55:45;;;;;;;1.33;1.00;;;5.50;1.00;;;;;;5049178;28;20527;-73
2022/02/08 04:58:29;;;;;;;1.20;1.00;;;5.50;1.00;;;;;;5045745;28;20429;-73
2022/02/08 05:44:38;;;;;;;0.70;0.70;;;5.50;1.00;;;;;;4972789;28;20775;-74
2022/02/08 05:47:04;;;;;;;3.33;1.07;;;5.60;1.00;;;;;;4975424;28;20433;-74
2022/02/08 05:49:41;;;;;;;10.03;2.13;;;5.60;1.00;;;;;;4956078;29;20422;-74
2022/02/08 05:54:42;;;;;;;5.70;1.60;;;5.60;1.00;;;;;;4963757;28;20500;-73
2022/02/08 05:57:09;;;;;;;6.57;1.67;;;5.60;1.00;;;;;;4975112;28;21225;-73
2022/02/08 05:59:36;;;;;;;5.70;1.33;;;5.60;1.00;;;;;;4966792;28;20426;-73
2022/02/08 06:02:06;;;;;;;11.10;2.67;;;5.60;1.00;;;;;;4976913;28;20414;-73
2022/02/08 06:04:38;;;;;;;2.40;1.27;;;5.60;1.00;;;;;;4970718;28;20436;-73
2022/02/08 06:07:04;;;;;;;5.40;1.40;;;5.60;1.00;;;;;;4975562;28;20429;-74
2022/02/08 06:09:35;;;;;;;7.10;1.53;;;5.50;1.00;;;;;;4974332;28;20508;-74
2022/02/08 06:12:01;;;;;;;1.33;1.00;;;5.50;1.00;;;;;;4974249;28;20462;-73
2022/02/08 06:14:29;;;;;;;1.83;1.10;;;;;;;;;;5045602;28;20414;-73
2022/02/08 06:16:55;;;;;;;8.43;1.77;;;5.50;1.00;;;;;;5040564;28;20252;-73
2022/02/08 06:19:24;;;;;;;4.10;1.30;;;5.50;1.00;;;;;;5050905;28;20464;-74
2022/02/08 06:21:50;;;;;;;5.90;1.53;;;;;;;;;;5047421;28;20556;-74
2022/02/08 06:24:15;;;;;;;1.90;1.23;;;5.50;1.00;;;;;;5042287;28;20834;-74
2022/02/08 06:26:41;;;;;;;4.07;1.50;;;5.60;1.00;;;;;;5048613;28;20485;-74
2022/02/08 06:29:18;;;;;;;2.00;1.30;;;5.60;1.00;;;;;;5055869;28;20205;-74
2022/02/08 06:31:48;;;;;;;1.20;1.10;;;5.60;1.00;;;;;;5047158;28;20458;-74
2022/02/08 06:34:18;;;;;;;4.13;1.17;;;5.60;1.00;;;;;;5034784;28;20430;-74
2022/02/08 06:36:44;;;;;;;5.93;1.57;;;5.50;1.00;;;;;;5042598;28;20500;-74
2022/02/08 06:39:10;;;;;;;4.77;1.60;;;5.50;1.00;;;;;;5055409;28;20430;-74
2022/02/08 06:41:42;;;;;;;9.60;2.00;;;5.50;1.00;;;;;;5042274;28;20410;-74
2022/02/08 06:44:07;;;;;;;2.87;1.10;;;5.50;1.00;;;;;;5042256;28;20647;-74
2022/02/08 06:46:36;;;;;;;9.83;1.80;;;5.40;1.00;;;;;;5048181;28;20403;-74
2022/02/08 06:49:01;;;;;;;2.30;1.30;;;5.30;1.00;;;;;;5036523;28;20176;-74
2022/02/08 06:51:28;;;;;;;12.90;1.63;;;;;;;;;;5055180;28;20410;-74
2022/02/08 06:53:53;;;;;;;2.13;1.40;;;5.30;1.00;;;;;;5041985;28;20858;-74
2022/02/08 06:56:19;;;;;;;3.13;1.37;;;5.30;1.00;;;;;;5055074;28;20430;-74
2022/02/08 06:58:58;;;;;;;1.80;1.43;;;5.40;1.00;;;;;;5040438;28;20191;-74
2022/02/08 07:01:31;;;;;;;3.27;1.93;;;5.30;1.00;;;;;;5044389;28;20183;-74
2022/02/08 07:03:57;;;;;;;4.43;1.70;;;5.30;1.00;;;;;;5052277;28;20497;-74
2022/02/08 07:06:23;;;;;;;5.13;1.50;;;5.20;1.00;;;;;;5055025;28;20561;-74
2022/02/08 07:08:49;;;;;;;1.23;1.07;;;;;;;;;;5038532;28;20221;-74
2022/02/08 07:11:16;;;;;;;12.90;1.60;;;5.10;1.00;;;;;;5044039;28;20502;-74
2022/02/08 07:13:44;;;;;;;6.10;1.50;;;5.10;1.00;;;;;;5066935;28;20948;-73
2022/02/08 07:16:13;;;;;;;10.00;1.90;;;5.10;1.00;;;;;;5042958;28;20414;-74
2022/02/08 07:18:39;;;;;;;3.50;1.50;;;5.00;1.00;;;;;;5054302;28;20486;-74
2022/02/08 07:21:08;;;;;;;8.33;2.00;;;5.10;1.00;;;;;;5042337;28;20494;-73
2022/02/08 07:23:34;;;;;;;5.80;1.77;;;5.10;1.00;;;;;;5035019;28;20179;-73
2022/02/08 07:26:00;;;;;;;4.50;2.37;;;5.10;1.00;;;;;;5047731;28;20467;-74
2022/02/08 07:28:43;;;;;;;6.30;1.83;;;5.10;1.00;;;;;;5047440;28;20900;-74
2022/02/08 07:31:23;;;;;;;4.10;2.10;;;5.20;1.00;;;;;;5034588;28;20883;-74
2022/02/08 07:38:53;;;;;;;10.23;2.30;;;5.20;1.00;;;;;;5042728;28;20442;-76
2022/02/08 07:41:42;;;;;;;2.00;1.50;;;5.30;1.00;;;;;;5053433;28;20430;-75
2022/02/08 07:44:10;;;;;;;3.23;1.93;;;5.30;1.00;;;;;;5041417;28;20422;-75
2022/02/08 07:46:36;;;;;;;2.57;1.50;;;5.30;1.00;;;;;;5050022;28;20409;-76
2022/02/08 07:49:04;;;;;;;7.13;1.40;;;5.40;1.00;;;;;;5037912;28;20415;-75
2022/02/08 07:51:43;;;;;;;5.47;2.20;;;5.40;1.00;;;;;;5042965;28;20425;-75
2022/02/08 07:54:09;;;;;;;8.23;1.83;;;5.50;1.00;;;;;;5050612;28;20417;-75
2022/02/08 07:56:34;;;;;;;5.03;1.90;;;5.50;1.00;;;;;;5043607;28;20432;-75
2022/02/08 07:59:01;;;;;;;6.90;1.73;;;5.60;1.00;;;;;;5050152;28;20411;-75
2022/02/08 08:01:27;;;;;;;10.40;1.53;;;5.50;1.00;;;;;;5044933;28;20175;-74
2022/02/08 08:03:53;;;;;;;3.40;1.40;;;;;;;;;;5037069;28;20434;-75
2022/02/08 08:06:30;;;;;;;3.53;1.83;;;5.60;1.00;;;;;;5034355;28;20176;-75
2022/02/08 08:09:19;;;;;;;11.53;2.27;;;5.70;1.00;;;;;;5052937;28;20420;-75
2022/02/08 08:12:17;;;;;;;5.67;1.93;;;5.70;1.00;;;;;;5047104;28;20460;-75
2022/02/08 08:14:44;;;;;;;2.20;1.47;;;5.80;1.00;;;;;;5034360;28;20392;-75
2022/02/08 08:17:38;;;;;;;6.20;2.43;;;5.80;1.00;;;;;;5040950;28;20404;-75
2022/02/08 08:19:58;;;;;;;2.53;1.10;;;5.80;1.00;;;;;;5041549;28;20785;-75
2022/02/08 08:22:24;;;;;;;3.33;1.93;;;5.90;1.00;;;;;;5044512;28;20411;-74
2022/02/08 08:24:50;;;;;;;4.80;2.23;;;;;;;;;;5045050;28;20195;-74
2022/02/08 08:27:18;;;;;;;2.73;1.10;;;5.90;1.00;;;;;;5045581;28;20702;-74
2022/02/08 08:29:44;;;;;;;4.40;2.10;;;6.00;1.00;;;;;;5042672;28;20473;-74
2022/02/08 08:32:10;;;;;;;2.03;1.40;;;6.10;1.00;;;;;;5051190;28;20461;-74
2022/02/08 08:34:37;;;;;;;6.20;2.23;;;6.10;1.00;;;;;;5037872;28;20419;-74
2022/02/08 08:37:06;;;;;;;8.20;1.80;;;6.20;1.00;;;;;;5050901;28;20391;-74
2022/02/08 08:39:46;;;;;;;5.87;2.30;;;6.30;1.00;;;;;;5034147;28;20451;-74
2022/02/08 08:52:41;;;;;;;8.97;1.93;;;6.70;1.00;;;;;;5053016;28;20466;-74
2022/02/08 08:55:08;;;;;;;8.67;2.07;;;6.80;1.00;;;;;;5044256;28;20759;-76
2022/02/08 08:57:59;;;;;;;7.40;1.97;;;6.90;1.00;;;;;;5046255;28;20429;-75
2022/02/08 09:00:36;;;;;;;14.53;2.37;;;6.80;1.00;;;;;;5047017;28;20410;-75
2022/02/08 09:03:02;;;;;;;4.60;1.63;;;;;;;;;;5043886;28;20414;-76
2022/02/08 09:05:28;;;;;;;9.07;2.60;;;7.00;1.00;;;;;;5038571;28;20421;-75
2022/02/08 09:07:54;;;;;;;4.10;1.90;;;7.00;1.00;;;;;;5043567;28;20410;-74
2022/02/08 09:10:30;;;;;;;7.30;2.30;;;7.00;1.00;;;;;;5046692;28;20901;-74
2022/02/08 09:16:18;;;;;;;6.30;1.83;;;7.00;1.00;;;;;;5020733;28;20408;-74
2022/02/08 09:19:19;;;;;;;3.53;1.93;;;7.00;1.00;;;;;;5011553;28;20895;-74
2022/02/08 09:29:23;;;;;;;8.57;1.87;;;7.10;1.00;;;;;;5012497;28;20759;-74
2022/02/08 09:31:59;;;;;;;2.50;1.67;;;7.10;1.00;;;;;;5020627;28;20542;-74
2022/02/08 09:34:39;;;;;;;9.53;2.10;;;7.10;1.00;;;;;;5016366;28;20760;-74
2022/02/08 09:37:04;;;;;;;9.90;2.03;;;7.00;1.00;;;;;;5028816;28;20438;-74
2022/02/08 09:39:43;;;;;;;9.63;2.43;;;7.10;1.00;;;;;;5031126;28;20921;-74
2022/02/08 09:42:10;;;;;;;12.30;2.80;;;7.10;1.00;;;;;;5019743;28;20188;-74
2022/02/08 09:44:37;;;;;;;7.60;2.10;;;7.00;1.00;;;;;;5026038;28;20450;-74
2022/02/08 09:47:12;;;;;;;6.03;2.20;;;7.00;1.00;;;;;;5018172;28;20431;-74
2022/02/08 09:49:43;;;;;;;8.20;2.23;;;7.00;1.00;;;;;;5007388;28;20445;-74
2022/02/08 09:52:10;;;;;;;6.63;1.97;;;7.20;1.00;;;;;;5039135;28;20465;-74
2022/02/08 09:54:37;;;;;;;2.10;1.73;;;7.20;1.00;;;;;;5056818;28;20417;-75
2022/02/08 09:57:14;;;;;;;5.87;2.40;;;7.30;1.00;;;;;;5042978;28;20514;-75
2022/02/08 09:59:41;;;;;;;10.70;2.33;;;7.30;1.00;;;;;;5046742;28;20419;-75
2022/02/08 10:02:18;;;;;;;4.40;1.60;;;7.50;1.00;;;;;;5053162;28;20771;-75
2022/02/08 10:04:58;;;;;;;2.27;1.73;;;7.50;1.00;;;;;;5056156;28;20893;-75
2022/02/08 10:07:33;;;;;;;6.37;2.57;;;7.70;1.00;;;;;;5043076;28;20414;-76
2022/02/08 10:10:00;;;;;;;7.03;1.80;;;7.70;1.00;;;;;;5042683;28;20848;-74
2022/02/08 10:12:32;;;;;;;10.87;2.50;;;7.90;1.00;;;;;;5038904;28;20953;-74
2022/02/08 10:22:50;;;;;;;5.17;1.90;;;8.40;1.00;;;;;;5051054;28;20936;-74
2022/02/08 10:28:31;;;;;;;3.07;1.73;;;8.30;1.00;;;;;;5041856;28;20493;-74
2022/02/08 10:39:19;;;;;;;3.63;1.20;;;8.40;1.00;;;;;;5007628;28;20447;-75
2022/02/08 10:41:48;;;;;;;3.70;1.80;;;8.40;1.00;;;;;;5003730;28;20416;-76
2022/02/08 10:44:24;;;;;;;2.60;1.33;;;8.40;1.00;;;;;;5000690;28;20420;-76
2022/02/08 10:47:09;;;;;;;2.53;1.50;;;8.50;1.00;;;;;;5013022;28;20759;-75
2022/02/08 10:49:48;;;;;;;3.13;1.30;;;8.30;1.00;;;;;;5013999;28;21035;-76
2022/02/08 10:52:18;;;;;;;3.43;1.50;;;8.20;1.00;;;;;;5000377;28;20629;-76
2022/02/08 10:54:48;;;;;;;2.60;1.47;;;8.30;1.00;;;;;;5011890;28;20899;-75
2022/02/08 10:57:25;;;;;;;2.77;1.50;;;8.20;1.00;;;;;;4998960;28;20420;-75
2022/02/08 10:59:59;;;;;;;3.33;1.23;;;8.10;1.00;;;;;;5005381;28;20419;-76
2022/02/08 11:02:50;;;;;;;1.50;1.40;;;8.30;1.00;;;;;;5000261;28;20787;-75
2022/02/08 11:05:27;;;;;;;6.13;1.87;;;8.40;1.00;;;;;;4997265;28;20428;-75
2022/02/08 11:08:12;;;;;;;7.67;1.20;;;8.40;1.00;;;;;;5013579;28;20573;-75
2022/02/08 11:18:41;;;;;;;5.33;1.93;;;8.70;1.00;;;;;;5035276;28;20757;-74
2022/02/08 11:21:29;;;;;;;2.00;1.50;;;8.70;1.00;;;;;;5035035;28;20387;-74
2022/02/08 11:24:26;;;;;;;6.73;2.00;;;8.80;1.00;;;;;;5049950;28;20406;-73
2022/02/08 11:27:02;;;;;;;6.17;1.87;;;8.80;1.00;;;;;;5054811;28;21063;-77
2022/02/08 11:29:42;;;;;;;17.80;2.57;;;9.00;1.00;;;;;;5041388;28;20876;-77
2022/02/08 11:32:53;;;;;;;3.80;1.30;;;9.10;1.00;;;;;;5054663;28;20453;-77
2022/02/08 12:00:36;;;;;;;4.23;1.47;;;9.10;1.00;;;;;;4997584;28;20511;-74
2022/02/08 12:08:59;;;;;;;0.80;0.80;;;9.30;1.00;;;;;;4921047;29;20423;-74
2022/02/08 12:11:55;;;;;;;2.17;1.40;;;9.40;1.00;;;;;;4923778;29;20437;-74
2022/02/08 12:55:46;;;;;;;1.20;1.10;;;9.30;1.00;;;;;;4973365;28;20414;-75
2022/02/08 12:58:38;;;;;;;0.77;0.77;;;9.30;1.00;;;;;;4972335;28;20405;-76
2022/02/08 13:01:34;;;;;;;1.00;0.90;;;9.20;1.00;;;;;;4960054;28;20428;-76
2022/02/08 13:04:20;;;;;;;2.97;1.87;;;9.10;1.00;;;;;;4968013;28;20512;-78
2022/02/08 14:08:31;;;;;;;1.77;1.67;;;9.10;1.00;;;;;;5048549;28;20533;-72
2022/02/08 14:11:22;;;;;;;1.53;1.43;;;9.10;1.00;;;;;;5044806;28;20519;-77
2022/02/08 14:14:28;;;;;;;1.80;1.70;;;9.10;1.00;;;;;;5040593;28;20852;-77
2022/02/08 14:17:14;;;;;;;1.90;1.70;;;9.00;1.00;;;;;;5055957;28;20476;-77
2022/02/08 14:19:52;;;;;;;2.00;1.73;;;9.00;1.00;;;;;;5042906;28;20816;-78
2022/02/08 14:25:33;;;;;;;1.63;1.37;;;8.90;1.00;;;;;;5054921;28;20416;-77
2022/02/08 14:31:00;;;;;;;1.73;1.63;;;8.90;1.00;;;;;;5039801;28;20896;-73
2022/02/08 14:57:33;;;;;;;2.30;2.00;;;8.80;1.00;;;;;;5013025;28;20422;-73
2022/02/08 15:08:48;;;;;;;3.53;1.83;;;8.60;1.00;;;;;;5013059;28;20408;-73
2022/02/08 15:11:33;;;;;;;2.80;1.97;;;8.60;1.00;;;;;;5013653;28;20183;-75
2022/02/08 15:14:00;;;;;;;9.97;2.27;;;8.70;1.00;;;;;;5034668;28;20457;-76
2022/02/08 15:16:29;;;;;;;3.40;2.30;;;8.70;1.00;;;;;;5041954;28;20407;-75
2022/02/08 15:19:06;;;;;;;6.43;2.10;;;8.80;1.00;;;;;;5045496;28;20407;-76
2022/02/08 15:21:43;;;;;;;5.70;2.17;;;8.60;1.00;;;;;;5047162;28;20776;-75
2022/02/08 15:24:10;;;;;;;9.93;2.30;;;8.60;1.00;;;;;;5047893;28;20406;-76
2022/02/08 15:26:37;;;;;;;9.73;2.67;;;8.70;1.00;;;;;;5041767;28;20428;-73
2022/02/08 15:29:04;;;;;;;4.60;2.23;;;8.50;1.00;;;;;;5054797;28;20489;-74
2022/02/08 15:31:30;;;;;;;11.57;1.97;;;8.50;1.00;;;;;;5054719;28;20444;-74
2022/02/08 15:33:59;;;;;;;1.70;1.60;;;;;;;;;;5054407;28;20543;-73
2022/02/08 15:36:24;;;;;;;4.93;1.87;;;8.50;1.00;;;;;;5041910;28;20912;-73
2022/02/08 15:38:54;;;;;;;4.57;1.83;;;8.50;1.00;;;;;;5054454;28;20410;-73
2022/02/08 15:41:23;;;;;;;2.27;2.07;;;8.40;1.00;;;;;;5054463;28;20194;-73
2022/02/08 15:44:16;;;;;;;3.53;1.90;;;8.40;1.00;;;;;;5040542;28;20422;-76
2022/02/08 15:46:41;;;;;;;5.10;2.33;;;8.40;1.00;;;;;;5033542;28;20415;-76
2022/02/08 15:49:13;;;;;;;3.77;2.60;;;8.50;1.00;;;;;;5047165;28;20799;-75
2022/02/08 15:51:56;;;;;;;3.83;2.17;;;8.40;1.00;;;;;;5034365;28;20431;-75
2022/02/08 15:54:34;;;;;;;2.50;2.30;;;8.40;1.00;;;;;;5037513;28;20414;-76
2022/02/08 16:00:21;;;;;;;3.23;2.30;;;8.40;1.00;;;;;;5054685;28;20399;-75
2022/02/08 16:06:45;;;;;;;4.63;2.27;;;8.60;1.00;;;;;;5049600;28;20453;-76
2022/02/08 16:09:13;;;;;;;3.17;2.60;;;8.40;1.00;;;;;;5038721;28;20782;-75
2022/02/08 16:11:52;;;;;;;2.60;1.90;;;8.40;1.00;;;;;;5053444;28;20489;-76
2022/02/08 16:19:40;;;;;;;5.67;2.30;;;8.50;1.00;;;;;;5044382;28;20449;-73
2022/02/08 16:25:17;;;;;;;9.87;2.90;;;8.40;1.00;;;;;;5047209;28;20979;-74
2022/02/08 16:53:31;;;;;;;5.37;2.27;;;8.40;1.00;;;;;;5008885;28;20454;-77
2022/02/08 16:56:09;;;;;;;5.47;2.70;;;8.40;1.00;;;;;;5011772;28;20424;-76
2022/02/08 16:58:49;;;;;;;4.63;2.40;;;8.40;1.00;;;;;;5011681;28;20415;-77
2022/02/08 17:01:19;;;;;;;7.73;3.03;;;8.40;1.00;;;;;;5011742;28;20411;-77
2022/02/08 17:03:55;;;;;;;12.70;2.80;;;8.40;1.00;;;;;;5012467;28;20420;-76
2022/02/08 17:06:29;;;;;;;6.63;2.80;;;8.40;1.00;;;;;;5015544;28;20485;-75
2022/02/08 17:09:17;;;;;;;2.67;2.20;;;8.30;1.00;;;;;;5014831;28;20523;-74
2022/02/08 17:11:49;;;;;;;7.77;2.47;;;;;;;;;;5004977;28;20526;-75
2022/02/08 17:47:40;;;;;;;4.83;2.37;;;8.50;1.00;;;;;;4955769;29;20454;-74
2022/02/08 17:50:11;;;;;;;6.43;2.57;;;8.40;1.00;;;;;;4944561;29;20433;-74
2022/02/08 17:52:43;;;;;;;3.93;2.50;;;8.50;1.00;;;;;;4958786;28;21035;-74
2022/02/08 17:55:12;;;;;;;3.30;2.13;;;8.50;1.00;;;;;;4994305;28;20439;-73
2022/02/08 17:57:38;;;;;;;7.83;2.10;;;8.60;1.00;;;;;;4994181;28;20440;-74
2022/02/08 18:00:06;;;;;;;3.30;1.97;;;8.60;1.00;;;;;;4994774;28;20420;-74
2022/02/08 18:02:37;;;;;;;2.40;1.90;;;8.60;1.00;;;;;;4994417;28;20432;-76
2022/02/08 18:05:14;;;;;;;3.93;2.53;;;8.60;1.00;;;;;;4994906;28;20428;-77
2022/02/08 18:07:56;;;;;;;2.70;1.80;;;8.60;1.00;;;;;;4995101;28;20417;-76
2022/02/08 18:10:24;;;;;;;16.23;2.07;;;8.80;1.00;;;;;;4995181;28;20904;-76
2022/02/08 18:12:52;;;;;;;1.70;1.60;;;8.70;1.00;;;;;;4977368;28;20785;-76
2022/02/08 18:15:19;;;;;;;7.03;2.07;;;8.60;1.00;;;;;;4995020;28;20427;-78
2022/02/08 18:18:01;;;;;;;11.70;1.73;;;8.90;1.00;;;;;;4996283;28;20428;-79
2022/02/08 18:23:19;;;;;;;2.23;1.80;;;9.70;1.00;;;;;;5046663;28;20410;-78
2022/02/08 18:27:04;;;;;;;1.70;1.60;;;8.70;1.00;;;;;;5036564;28;20454;-78
2022/02/08 19:21:57;;;;;;;3.13;1.87;;;8.80;1.00;;;;;;5046983;28;20475;-77
2022/02/08 19:24:38;;;;;;;2.97;2.03;;;8.80;1.00;;;;;;5041730;28;20183;-76
2022/02/08 19:27:04;;;;;;;2.40;2.00;;;8.80;1.00;;;;;;5054155;28;20469;-78
2022/02/08 19:29:42;;;;;;;2.40;2.20;;;8.80;1.00;;;;;;5041092;28;20429;-77
2022/02/08 19:32:09;;;;;;;3.93;2.63;;;8.90;1.00;;;;;;5042241;28;20469;-76
2022/02/08 19:34:37;;;;;;;1.93;1.70;;;8.90;1.00;;;;;;5051602;28;20821;-76
2022/02/08 19:37:15;;;;;;;1.90;1.80;;;8.80;1.00;;;;;;5039340;28;20441;-76
2022/02/08 19:39:43;;;;;;;1.73;1.63;;;8.80;1.00;;;;;;5035250;28;20403;-77
2022/02/08 19:42:24;;;;;;;2.07;1.87;;;8.80;1.00;;;;;;5061924;28;20933;-76
2022/02/08 19:45:14;;;;;;;4.50;2.10;;;8.70;1.00;;;;;;5047848;28;20492;-75
2022/02/08 19:48:06;;;;;;;5.00;2.60;;;8.60;1.00;;;;;;5041365;28;20435;-76
2022/02/08 19:50:35;;;;;;;5.17;2.67;;;8.70;1.00;;;;;;5042449;28;20406;-76
2022/02/08 19:53:00;;;;;;;3.50;2.37;;;8.70;1.00;;;;;;5040765;28;20458;-76
2022/02/08 19:58:23;;;;;;;5.00;2.50;;;8.70;1.00;;;;;;5047552;28;20216;-77
2022/02/08 20:01:04;;;;;;;3.70;2.30;;;8.60;1.00;;;;;;5047190;28;20476;-75
2022/02/08 20:03:36;;;;;;;5.50;2.57;;;8.60;1.00;;;;;;5034708;28;20403;-74
2022/02/08 20:06:08;;;;;;;2.80;2.40;;;8.60;1.00;;;;;;5048063;28;20932;-75
2022/02/08 20:08:33;;;;;;;2.53;2.33;;;8.60;1.00;;;;;;5043249;28;20961;-75
2022/02/08 20:11:00;;;;;;;4.10;2.37;;;8.60;1.00;;;;;;5041148;28;20524;-75
2022/02/08 20:13:28;;;;;;;2.73;2.30;;;8.60;1.00;;;;;;5053990;28;20462;-75
2022/02/08 20:15:57;;;;;;;6.97;1.90;;;8.60;1.00;;;;;;5043449;28;20472;-76
2022/02/08 20:18:25;;;;;;;3.70;2.60;;;8.70;1.00;;;;;;5045562;28;20505;-76
2022/02/08 20:21:02;;;;;;;6.37;3.00;;;8.60;1.00;;;;;;5040548;28;20430;-76
2022/02/08 20:23:28;;;;;;;4.20;3.10;;;8.60;1.00;;;;;;5036230;28;20493;-75
2022/02/08 20:25:55;;;;;;;2.63;2.40;;;8.80;1.00;;;;;;5042899;28;20922;-76
2022/02/08 20:28:35;;;;;;;2.67;2.50;;;8.60;1.00;;;;;;5045210;28;20441;-77
2022/02/08 20:31:07;;;;;;;2.53;2.33;;;8.80;1.00;;;;;;5041546;28;20410;-75
2022/02/08 20:33:48;;;;;;;4.93;2.70;;;8.60;1.00;;;;;;5040490;28;20489;-78
2022/02/08 20:36:24;;;;;;;2.90;2.13;;;8.60;1.00;;;;;;5053334;28;21013;-77
2022/02/08 20:38:54;;;;;;;5.17;3.07;;;8.60;1.00;;;;;;5039261;28;20422;-77
2022/02/08 20:41:24;;;;;;;3.07;2.87;;;8.60;1.00;;;;;;5053615;28;20843;-77
2022/02/08 20:43:54;;;;;;;3.13;2.83;;;8.70;1.00;;;;;;5040590;28;20415;-78
2022/02/08 20:46:31;;;;;;;3.87;2.43;;;8.60;1.00;;;;;;5034697;28;20427;-75
2022/02/08 20:49:00;;;;;;;4.67;2.57;;;8.70;1.00;;;;;;5045930;28;20425;-75
2022/02/08 20:51:30;;;;;;;3.47;3.17;;;8.60;1.00;;;;;;5046950;28;20505;-76
2022/02/08 20:54:04;;;;;;;5.40;3.00;;;8.70;1.00;;;;;;5035956;28;20494;-75
2022/02/08 20:56:34;;;;;;;3.67;2.57;;;8.70;1.00;;;;;;5046844;28;20419;-75
2022/02/08 21:01:40;;;;;;;3.80;2.67;;;8.60;1.00;;;;;;5040644;28;20456;-76
2022/02/08 21:06:44;;;;;;;5.03;2.77;;;8.70;1.00;;;;;;5034835;28;20442;-75
2022/02/08 21:09:15;;;;;;;4.83;2.97;;;8.60;1.00;;;;;;5042122;28;20800;-76
2022/02/08 21:11:45;;;;;;;5.60;3.13;;;8.80;1.00;;;;;;5045069;28;20781;-76
2022/02/08 21:14:13;;;;;;;6.63;2.83;;;8.60;1.00;;;;;;5046575;28;20458;-76
2022/02/08 21:16:43;;;;;;;6.00;3.23;;;8.60;1.00;;;;;;5043469;28;20418;-75
2022/02/08 21:19:11;;;;;;;5.10;3.13;;;8.60;1.00;;;;;;5049817;28;20431;-75
2022/02/08 21:21:44;;;;;;;4.63;2.60;;;8.60;1.00;;;;;;5043536;28;20399;-75
2022/02/08 21:24:11;;;;;;;4.70;3.10;;;8.70;1.00;;;;;;5048506;28;20991;-75